JBU1193 KBOS-MKJS
Flight info
| Callsign | JBU1193 |
|---|---|
| Flight time | N/A |
| Altitude | 34000 |
| Route | SSOXS7 SSOXS Q167 RIFLE DCT HEADI Q97 KALDA DCT TUGGR Q101 SKARP DCT IDOLS DCT JAZZI/N0461F360 Y319 URSUS/N0461F350 UL780 TASNO UM221 NIBEO DCT ADSEL LENAR7 |
| Aircraft | A321/M-SDE3FGHIRWY/LB1 |
Departure
| Time | N/A |
|---|---|
| Airport | Boston Logan International Airport (KBOS) |
Arrival
| Time | 2026-05-07 17:58 |
|---|---|
| Airport | Sangster International Airport (MKJS) |
| Time | Latitude | Longitude | Altitude | Speed | Heading |
|---|---|---|---|---|---|
| 2026-05-07 15:01 | 39.00411 | -74.46061 | 33976 ft | 354 kts | 229° |
| 2026-05-07 15:01 | 38.96631 | -74.50134 | 33978 ft | 355 kts | 229° |
| 2026-05-07 15:02 | 38.92838 | -74.54240 | 33988 ft | 353 kts | 230° |
| 2026-05-07 15:02 | 38.89209 | -74.58475 | 33982 ft | 352 kts | 231° |
| 2026-05-07 15:03 | 38.85624 | -74.62755 | 33986 ft | 352 kts | 231° |
| 2026-05-07 15:03 | 38.82044 | -74.66984 | 33991 ft | 352 kts | 231° |
| 2026-05-07 15:04 | 38.78413 | -74.71220 | 33988 ft | 353 kts | 230° |
| 2026-05-07 15:04 | 38.74774 | -74.75443 | 33988 ft | 354 kts | 230° |
| 2026-05-07 15:05 | 38.70978 | -74.79516 | 33986 ft | 357 kts | 227° |
| 2026-05-07 15:05 | 38.67093 | -74.83483 | 33987 ft | 357 kts | 227° |
| 2026-05-07 15:06 | 38.63213 | -74.87459 | 33997 ft | 358 kts | 227° |
| 2026-05-07 15:06 | 38.59352 | -74.91464 | 33994 ft | 358 kts | 228° |
| 2026-05-07 15:07 | 38.55489 | -74.95483 | 33994 ft | 358 kts | 227° |
| 2026-05-07 15:07 | 38.51630 | -74.99517 | 33979 ft | 358 kts | 229° |
| 2026-05-07 15:08 | 38.48513 | -75.02971 | 33987 ft | 357 kts | 229° |
| 2026-05-07 15:08 | 38.44722 | -75.07099 | 33988 ft | 360 kts | 227° |
| 2026-05-07 15:09 | 38.40699 | -75.10945 | 33985 ft | 363 kts | 225° |
| 2026-05-07 15:09 | 38.36600 | -75.14723 | 33968 ft | 365 kts | 223° |
| 2026-05-07 15:10 | 38.32104 | -75.17986 | 33961 ft | 373 kts | 219° |
| 2026-05-07 15:10 | 38.27516 | -75.21122 | 33960 ft | 375 kts | 218° |
| 2026-05-07 15:11 | 38.22894 | -75.24241 | 33956 ft | 376 kts | 218° |
| 2026-05-07 15:11 | 38.18267 | -75.27378 | 33959 ft | 377 kts | 218° |
| 2026-05-07 15:12 | 38.13636 | -75.30538 | 33956 ft | 378 kts | 218° |
| 2026-05-07 15:12 | 38.08998 | -75.33709 | 33955 ft | 379 kts | 218° |
| 2026-05-07 15:13 | 38.04342 | -75.36880 | 33956 ft | 380 kts | 218° |
| 2026-05-07 15:13 | 37.99670 | -75.40044 | 33958 ft | 381 kts | 218° |
| 2026-05-07 15:14 | 37.95013 | -75.43190 | 33957 ft | 382 kts | 218° |
| 2026-05-07 15:14 | 37.90318 | -75.46364 | 33958 ft | 383 kts | 218° |
| 2026-05-07 15:15 | 37.85605 | -75.49544 | 33957 ft | 384 kts | 218° |
| 2026-05-07 15:15 | 37.80881 | -75.52738 | 33950 ft | 386 kts | 218° |
| 2026-05-07 15:16 | 37.76137 | -75.55941 | 33948 ft | 387 kts | 218° |
| 2026-05-07 15:16 | 37.71376 | -75.59143 | 33953 ft | 388 kts | 218° |
| 2026-05-07 15:17 | 37.66206 | -75.61564 | 33953 ft | 412 kts | 202° |
| 2026-05-07 15:17 | 37.60522 | -75.62787 | 33957 ft | 415 kts | 201° |
| 2026-05-07 15:18 | 37.54824 | -75.63995 | 33953 ft | 415 kts | 201° |
| 2026-05-07 15:18 | 37.49121 | -75.65217 | 33950 ft | 416 kts | 201° |
| 2026-05-07 15:19 | 37.43407 | -75.66465 | 33934 ft | 417 kts | 201° |
| 2026-05-07 15:19 | 37.37677 | -75.67712 | 33919 ft | 419 kts | 201° |
| 2026-05-07 15:20 | 37.31954 | -75.68931 | 33906 ft | 421 kts | 201° |
| 2026-05-07 15:20 | 37.26162 | -75.70165 | 33897 ft | 423 kts | 201° |
| 2026-05-07 15:21 | 37.20352 | -75.71412 | 33900 ft | 425 kts | 201° |
| 2026-05-07 15:21 | 37.14511 | -75.72664 | 33900 ft | 426 kts | 201° |
| 2026-05-07 15:22 | 37.08661 | -75.73911 | 33904 ft | 426 kts | 202° |
| 2026-05-07 15:22 | 37.05835 | -75.74844 | 33900 ft | 414 kts | 211° |
| 2026-05-07 15:22 | 37.03235 | -75.76263 | 33908 ft | 402 kts | 219° |
| 2026-05-07 15:23 | 36.98362 | -75.79671 | 33913 ft | 402 kts | 219° |
| 2026-05-07 15:23 | 36.93471 | -75.83072 | 33923 ft | 403 kts | 220° |
| 2026-05-07 15:24 | 36.88593 | -75.86442 | 33930 ft | 403 kts | 220° |
| 2026-05-07 15:24 | 36.83682 | -75.89838 | 33946 ft | 404 kts | 220° |
| 2026-05-07 15:25 | 36.78768 | -75.93225 | 33961 ft | 404 kts | 220° |
| 2026-05-07 15:25 | 36.73847 | -75.96606 | 33957 ft | 403 kts | 220° |
| 2026-05-07 15:26 | 36.68943 | -75.99995 | 33970 ft | 403 kts | 220° |
| 2026-05-07 15:26 | 36.64039 | -76.03379 | 33965 ft | 403 kts | 219° |
| 2026-05-07 15:27 | 36.59133 | -76.06746 | 33965 ft | 402 kts | 219° |
| 2026-05-07 15:27 | 36.54227 | -76.10106 | 33960 ft | 402 kts | 219° |
| 2026-05-07 15:28 | 36.49324 | -76.13466 | 33958 ft | 402 kts | 219° |
| 2026-05-07 15:28 | 36.44420 | -76.16817 | 33957 ft | 402 kts | 219° |
| 2026-05-07 15:29 | 36.39511 | -76.20166 | 33924 ft | 402 kts | 219° |
| 2026-05-07 15:29 | 36.34601 | -76.23515 | 33988 ft | 402 kts | 219° |
| 2026-05-07 15:30 | 36.32185 | -76.25153 | 34609 ft | 390 kts | 220° |
| 2026-05-07 15:30 | 36.29862 | -76.26718 | 35143 ft | 382 kts | 220° |
| 2026-05-07 15:30 | 36.27542 | -76.28284 | 35574 ft | 376 kts | 221° |
| 2026-05-07 15:30 | 36.25257 | -76.29831 | 35863 ft | 372 kts | 221° |
| 2026-05-07 15:31 | 36.20714 | -76.32935 | 35915 ft | 377 kts | 221° |
| 2026-05-07 15:31 | 36.16070 | -76.36114 | 35914 ft | 385 kts | 221° |
| 2026-05-07 15:32 | 36.11334 | -76.39329 | 35913 ft | 391 kts | 220° |
| 2026-05-07 15:32 | 36.06550 | -76.42552 | 35910 ft | 392 kts | 220° |
| 2026-05-07 15:33 | 36.01747 | -76.45781 | 35911 ft | 393 kts | 220° |
| 2026-05-07 15:33 | 35.96938 | -76.49015 | 35913 ft | 394 kts | 220° |
| 2026-05-07 15:34 | 35.92149 | -76.52241 | 35906 ft | 395 kts | 220° |
| 2026-05-07 15:34 | 35.87302 | -76.55463 | 35903 ft | 398 kts | 219° |
| 2026-05-07 15:35 | 35.82341 | -76.58540 | 35900 ft | 400 kts | 218° |
| 2026-05-07 15:35 | 35.77338 | -76.61570 | 35898 ft | 401 kts | 218° |
| 2026-05-07 15:36 | 35.72327 | -76.64623 | 35906 ft | 402 kts | 218° |
| 2026-05-07 15:36 | 35.67329 | -76.67698 | 35909 ft | 402 kts | 218° |
| 2026-05-07 15:37 | 35.62324 | -76.70782 | 35914 ft | 403 kts | 218° |
| 2026-05-07 15:37 | 35.57302 | -76.73867 | 35918 ft | 403 kts | 218° |
| 2026-05-07 15:38 | 35.52272 | -76.76950 | 35921 ft | 404 kts | 217° |
| 2026-05-07 15:38 | 35.47237 | -76.80026 | 35920 ft | 404 kts | 217° |
| 2026-05-07 15:39 | 35.42193 | -76.83101 | 35921 ft | 405 kts | 217° |
| 2026-05-07 15:39 | 35.37142 | -76.86176 | 35923 ft | 405 kts | 217° |
| 2026-05-07 15:40 | 35.32089 | -76.89251 | 35921 ft | 406 kts | 217° |
| 2026-05-07 15:40 | 35.27034 | -76.92331 | 35927 ft | 406 kts | 217° |
| 2026-05-07 15:41 | 35.21970 | -76.95426 | 35930 ft | 406 kts | 217° |
| 2026-05-07 15:41 | 35.16943 | -76.98577 | 35936 ft | 406 kts | 218° |
| 2026-05-07 15:42 | 35.11924 | -77.01749 | 35936 ft | 406 kts | 218° |
| 2026-05-07 15:42 | 35.06932 | -77.04882 | 35938 ft | 407 kts | 218° |
| 2026-05-07 15:43 | 35.01890 | -77.08030 | 35939 ft | 407 kts | 218° |
| 2026-05-07 15:43 | 34.96848 | -77.11165 | 35935 ft | 407 kts | 217° |
| 2026-05-07 15:44 | 34.91807 | -77.14306 | 35932 ft | 407 kts | 217° |
| 2026-05-07 15:44 | 34.86758 | -77.17453 | 35931 ft | 408 kts | 217° |
| 2026-05-07 15:45 | 34.81698 | -77.20604 | 35931 ft | 409 kts | 217° |
| 2026-05-07 15:45 | 34.76618 | -77.23760 | 35920 ft | 410 kts | 217° |
| 2026-05-07 15:46 | 34.69014 | -77.28465 | 35926 ft | 411 kts | 217° |
| 2026-05-07 15:47 | 34.63908 | -77.31615 | 35927 ft | 412 kts | 217° |
| 2026-05-07 15:47 | 34.58786 | -77.34773 | 35925 ft | 413 kts | 217° |
| 2026-05-07 15:48 | 34.53666 | -77.37935 | 35931 ft | 413 kts | 217° |
| 2026-05-07 15:48 | 34.48416 | -77.40872 | 35928 ft | 425 kts | 207° |
| 2026-05-07 15:48 | 34.45491 | -77.41688 | 35932 ft | 437 kts | 200° |
| 2026-05-07 15:49 | 34.42476 | -77.42274 | 35933 ft | 438 kts | 200° |
| 2026-05-07 15:49 | 34.36446 | -77.43433 | 35931 ft | 439 kts | 200° |
| 2026-05-07 15:50 | 34.30413 | -77.44604 | 35926 ft | 440 kts | 200° |
| 2026-05-07 15:50 | 34.24404 | -77.45778 | 35925 ft | 441 kts | 200° |
| 2026-05-07 15:51 | 34.18341 | -77.46957 | 35926 ft | 441 kts | 199° |
| 2026-05-07 15:51 | 34.12275 | -77.48136 | 35922 ft | 442 kts | 199° |
| 2026-05-07 15:52 | 34.06196 | -77.49326 | 35922 ft | 443 kts | 199° |
| 2026-05-07 15:52 | 34.00104 | -77.50515 | 35927 ft | 444 kts | 199° |
| 2026-05-07 15:53 | 33.94002 | -77.51700 | 35925 ft | 445 kts | 199° |
| 2026-05-07 15:53 | 33.87884 | -77.52877 | 35931 ft | 445 kts | 199° |
| 2026-05-07 15:54 | 33.81763 | -77.54063 | 35938 ft | 446 kts | 198° |
| 2026-05-07 15:54 | 33.75626 | -77.55247 | 35943 ft | 447 kts | 198° |
| 2026-05-07 15:55 | 33.69474 | -77.56429 | 35941 ft | 448 kts | 198° |
| 2026-05-07 15:55 | 33.63319 | -77.57608 | 35944 ft | 448 kts | 198° |
| 2026-05-07 15:56 | 33.57147 | -77.58794 | 35940 ft | 449 kts | 198° |
| 2026-05-07 15:56 | 33.51993 | -77.59704 | 35939 ft | 451 kts | 197° |
| 2026-05-07 15:57 | 33.45758 | -77.60714 | 35940 ft | 453 kts | 196° |
| 2026-05-07 15:57 | 33.39508 | -77.61716 | 35943 ft | 454 kts | 196° |
| 2026-05-07 15:58 | 33.33247 | -77.62750 | 35942 ft | 454 kts | 196° |
| 2026-05-07 15:58 | 33.26984 | -77.63802 | 35947 ft | 455 kts | 197° |
| 2026-05-07 15:59 | 33.20742 | -77.64848 | 35954 ft | 456 kts | 196° |
| 2026-05-07 15:59 | 33.14450 | -77.65900 | 35964 ft | 456 kts | 196° |
| 2026-05-07 16:00 | 33.08153 | -77.66950 | 35961 ft | 457 kts | 196° |
| 2026-05-07 16:00 | 33.01845 | -77.67987 | 35966 ft | 458 kts | 196° |
| 2026-05-07 16:01 | 32.95526 | -77.69019 | 35965 ft | 458 kts | 196° |
| 2026-05-07 16:01 | 32.89208 | -77.70061 | 35969 ft | 458 kts | 196° |
| 2026-05-07 16:02 | 32.82890 | -77.71109 | 35973 ft | 459 kts | 196° |
| 2026-05-07 16:02 | 32.76563 | -77.72154 | 35977 ft | 459 kts | 196° |
| 2026-05-07 16:03 | 32.70281 | -77.73184 | 35970 ft | 458 kts | 196° |
| 2026-05-07 16:03 | 32.63968 | -77.74217 | 35974 ft | 458 kts | 196° |
| 2026-05-07 16:04 | 32.57661 | -77.75246 | 35973 ft | 457 kts | 196° |
| 2026-05-07 16:04 | 32.51356 | -77.76279 | 35978 ft | 457 kts | 196° |
| 2026-05-07 16:05 | 32.45048 | -77.77310 | 35981 ft | 458 kts | 196° |
| 2026-05-07 16:05 | 32.38723 | -77.78344 | 35986 ft | 459 kts | 196° |
| 2026-05-07 16:06 | 32.32391 | -77.79373 | 35992 ft | 460 kts | 196° |
| 2026-05-07 16:06 | 32.26047 | -77.80400 | 35995 ft | 460 kts | 196° |
| 2026-05-07 16:07 | 32.19733 | -77.81426 | 36000 ft | 461 kts | 196° |
| 2026-05-07 16:07 | 32.13368 | -77.82464 | 36005 ft | 462 kts | 196° |
| 2026-05-07 16:08 | 32.06995 | -77.83504 | 36006 ft | 463 kts | 196° |
| 2026-05-07 16:08 | 32.00609 | -77.84532 | 36011 ft | 464 kts | 196° |
| 2026-05-07 16:09 | 31.94214 | -77.85568 | 36016 ft | 465 kts | 196° |
| 2026-05-07 16:09 | 31.87799 | -77.86600 | 36017 ft | 465 kts | 196° |
| 2026-05-07 16:10 | 31.81378 | -77.87635 | 36022 ft | 466 kts | 196° |
| 2026-05-07 16:10 | 31.74942 | -77.88669 | 36034 ft | 467 kts | 196° |
| 2026-05-07 16:11 | 31.68500 | -77.89702 | 36037 ft | 468 kts | 196° |
| 2026-05-07 16:11 | 31.62038 | -77.90734 | 36043 ft | 468 kts | 196° |
| 2026-05-07 16:12 | 31.55629 | -77.91765 | 36047 ft | 469 kts | 195° |
| 2026-05-07 16:12 | 31.49155 | -77.92807 | 36049 ft | 469 kts | 195° |
| 2026-05-07 16:13 | 31.42686 | -77.93842 | 36051 ft | 469 kts | 195° |
| 2026-05-07 16:13 | 31.36207 | -77.94879 | 36052 ft | 470 kts | 195° |
| 2026-05-07 16:14 | 31.29723 | -77.95911 | 36056 ft | 470 kts | 195° |
| 2026-05-07 16:14 | 31.23235 | -77.96938 | 36061 ft | 471 kts | 195° |
| 2026-05-07 16:15 | 31.16742 | -77.97965 | 36065 ft | 471 kts | 195° |
| 2026-05-07 16:15 | 31.10240 | -77.99003 | 36065 ft | 471 kts | 195° |
| 2026-05-07 16:16 | 31.03740 | -78.00042 | 36064 ft | 472 kts | 195° |
| 2026-05-07 16:16 | 30.97272 | -78.01064 | 36068 ft | 472 kts | 195° |
| 2026-05-07 16:17 | 30.90761 | -78.02095 | 36065 ft | 473 kts | 195° |
| 2026-05-07 16:17 | 30.84239 | -78.03116 | 36064 ft | 473 kts | 195° |
| 2026-05-07 16:18 | 30.77707 | -78.04141 | 36069 ft | 474 kts | 195° |
| 2026-05-07 16:18 | 30.71169 | -78.05170 | 36069 ft | 474 kts | 195° |
| 2026-05-07 16:19 | 30.64625 | -78.06195 | 36073 ft | 475 kts | 195° |
| 2026-05-07 16:19 | 30.58076 | -78.07227 | 36074 ft | 475 kts | 195° |
| 2026-05-07 16:20 | 30.51514 | -78.08260 | 36070 ft | 476 kts | 195° |
| 2026-05-07 16:20 | 30.44989 | -78.09273 | 36072 ft | 476 kts | 195° |
| 2026-05-07 16:21 | 30.38419 | -78.10307 | 36074 ft | 476 kts | 195° |
| 2026-05-07 16:21 | 30.31854 | -78.11362 | 36081 ft | 476 kts | 195° |
| 2026-05-07 16:22 | 30.25293 | -78.12422 | 36089 ft | 476 kts | 195° |
| 2026-05-07 16:22 | 30.18728 | -78.13485 | 36087 ft | 476 kts | 195° |
| 2026-05-07 16:23 | 30.12158 | -78.14540 | 36089 ft | 477 kts | 195° |
| 2026-05-07 16:23 | 30.05581 | -78.15595 | 36090 ft | 477 kts | 195° |
| 2026-05-07 16:24 | 29.99049 | -78.16639 | 36089 ft | 477 kts | 195° |
| 2026-05-07 16:24 | 29.92464 | -78.17691 | 36090 ft | 478 kts | 195° |
| 2026-05-07 16:25 | 29.85871 | -78.18740 | 36089 ft | 478 kts | 195° |
| 2026-05-07 16:25 | 29.79272 | -78.19795 | 36089 ft | 479 kts | 195° |
| 2026-05-07 16:26 | 29.72669 | -78.20848 | 36093 ft | 480 kts | 195° |
| 2026-05-07 16:26 | 29.66048 | -78.21898 | 36093 ft | 480 kts | 195° |
| 2026-05-07 16:27 | 29.59424 | -78.22950 | 36092 ft | 481 kts | 195° |
| 2026-05-07 16:27 | 29.52835 | -78.23996 | 36096 ft | 481 kts | 195° |
| 2026-05-07 16:28 | 29.46202 | -78.25052 | 36096 ft | 482 kts | 195° |
| 2026-05-07 16:28 | 29.39561 | -78.26102 | 36098 ft | 482 kts | 195° |
| 2026-05-07 16:29 | 29.32914 | -78.27153 | 36098 ft | 482 kts | 194° |
| 2026-05-07 16:29 | 29.26258 | -78.28199 | 36100 ft | 483 kts | 195° |
| 2026-05-07 16:30 | 29.19593 | -78.29248 | 36100 ft | 484 kts | 194° |
| 2026-05-07 16:30 | 29.12916 | -78.30294 | 36101 ft | 484 kts | 194° |
| 2026-05-07 16:31 | 29.06241 | -78.31344 | 36100 ft | 485 kts | 194° |
| 2026-05-07 16:31 | 28.99558 | -78.32394 | 36098 ft | 485 kts | 194° |
| 2026-05-07 16:32 | 28.92865 | -78.33448 | 36097 ft | 486 kts | 194° |
| 2026-05-07 16:32 | 28.86161 | -78.34490 | 36099 ft | 486 kts | 194° |
| 2026-05-07 16:33 | 28.79451 | -78.35535 | 36102 ft | 487 kts | 194° |
| 2026-05-07 16:33 | 28.72777 | -78.36576 | 36105 ft | 487 kts | 194° |
| 2026-05-07 16:34 | 28.66057 | -78.37629 | 36105 ft | 488 kts | 194° |
| 2026-05-07 16:34 | 28.59331 | -78.38679 | 36110 ft | 488 kts | 194° |
| 2026-05-07 16:35 | 28.52596 | -78.39723 | 36109 ft | 489 kts | 194° |
| 2026-05-07 16:35 | 28.45855 | -78.40767 | 36121 ft | 489 kts | 194° |
| 2026-05-07 16:36 | 28.39113 | -78.41816 | 36109 ft | 489 kts | 194° |
| 2026-05-07 16:36 | 28.32367 | -78.42862 | 36106 ft | 490 kts | 194° |
| 2026-05-07 16:37 | 28.25614 | -78.43909 | 36112 ft | 490 kts | 194° |
| 2026-05-07 16:37 | 28.18859 | -78.44957 | 36120 ft | 490 kts | 194° |
| 2026-05-07 16:38 | 28.12101 | -78.45989 | 36110 ft | 490 kts | 193° |
| 2026-05-07 16:38 | 28.05372 | -78.47019 | 36116 ft | 491 kts | 193° |
| 2026-05-07 16:39 | 27.98612 | -78.48063 | 36114 ft | 491 kts | 193° |
| 2026-05-07 16:39 | 27.91844 | -78.49116 | 36117 ft | 491 kts | 193° |
| 2026-05-07 16:40 | 27.85072 | -78.50155 | 36119 ft | 491 kts | 193° |
| 2026-05-07 16:40 | 27.78296 | -78.51185 | 36114 ft | 491 kts | 193° |
| 2026-05-07 16:41 | 27.71517 | -78.52219 | 36114 ft | 491 kts | 193° |
| 2026-05-07 16:41 | 27.64785 | -78.53259 | 36113 ft | 492 kts | 193° |
| 2026-05-07 16:42 | 27.57962 | -78.54303 | 36105 ft | 488 kts | 192° |
| 2026-05-07 16:42 | 27.51376 | -78.55294 | 36096 ft | 477 kts | 192° |
| 2026-05-07 16:43 | 27.44804 | -78.56293 | 36098 ft | 476 kts | 192° |
| 2026-05-07 16:43 | 27.38241 | -78.57298 | 36098 ft | 476 kts | 192° |
| 2026-05-07 16:44 | 27.31684 | -78.58303 | 36101 ft | 476 kts | 192° |
| 2026-05-07 16:44 | 27.25117 | -78.59300 | 36103 ft | 476 kts | 192° |
| 2026-05-07 16:45 | 27.18544 | -78.60291 | 36103 ft | 477 kts | 192° |
| 2026-05-07 16:45 | 27.11960 | -78.61285 | 36108 ft | 477 kts | 192° |
| 2026-05-07 16:46 | 27.05376 | -78.62281 | 36111 ft | 478 kts | 192° |
| 2026-05-07 16:46 | 26.98783 | -78.63280 | 36115 ft | 478 kts | 192° |
| 2026-05-07 16:47 | 26.92198 | -78.64276 | 36112 ft | 478 kts | 192° |
| 2026-05-07 16:47 | 26.85602 | -78.65272 | 36117 ft | 478 kts | 192° |
| 2026-05-07 16:48 | 26.79051 | -78.66257 | 36125 ft | 478 kts | 192° |
| 2026-05-07 16:48 | 26.72458 | -78.67249 | 36127 ft | 478 kts | 192° |
| 2026-05-07 16:49 | 26.65854 | -78.68238 | 36131 ft | 478 kts | 192° |
| 2026-05-07 16:49 | 26.59256 | -78.69229 | 36125 ft | 479 kts | 192° |
| 2026-05-07 16:50 | 26.52644 | -78.70221 | 36128 ft | 479 kts | 192° |
| 2026-05-07 16:50 | 26.46037 | -78.71205 | 36128 ft | 479 kts | 192° |
| 2026-05-07 16:51 | 26.40546 | -78.72015 | 36122 ft | 479 kts | 192° |
| 2026-05-07 16:51 | 26.33932 | -78.72987 | 36123 ft | 479 kts | 192° |
| 2026-05-07 16:52 | 26.27319 | -78.73966 | 36117 ft | 479 kts | 192° |
| 2026-05-07 16:52 | 26.20704 | -78.74955 | 36115 ft | 480 kts | 192° |
| 2026-05-07 16:53 | 26.14083 | -78.75935 | 36117 ft | 480 kts | 191° |
| 2026-05-07 16:53 | 26.07461 | -78.76905 | 36113 ft | 480 kts | 191° |
| 2026-05-07 16:54 | 26.00837 | -78.77879 | 36113 ft | 480 kts | 191° |
| 2026-05-07 16:54 | 25.94209 | -78.78851 | 36113 ft | 481 kts | 191° |
| 2026-05-07 16:55 | 25.87575 | -78.79823 | 36111 ft | 481 kts | 191° |
| 2026-05-07 16:55 | 25.80941 | -78.80799 | 36111 ft | 481 kts | 191° |
| 2026-05-07 16:56 | 25.74307 | -78.81780 | 36111 ft | 481 kts | 191° |
| 2026-05-07 16:56 | 25.64388 | -78.83237 | 36106 ft | 481 kts | 191° |
| 2026-05-07 16:57 | 25.57742 | -78.84206 | 36109 ft | 482 kts | 191° |
| 2026-05-07 16:57 | 25.51094 | -78.85176 | 36111 ft | 482 kts | 191° |
| 2026-05-07 16:58 | 25.44443 | -78.86145 | 36108 ft | 482 kts | 191° |
| 2026-05-07 16:58 | 25.37793 | -78.87121 | 36104 ft | 482 kts | 191° |
| 2026-05-07 16:59 | 25.31138 | -78.88087 | 36105 ft | 483 kts | 191° |
| 2026-05-07 16:59 | 25.24472 | -78.89044 | 36102 ft | 483 kts | 191° |
| 2026-05-07 17:00 | 25.17805 | -78.90013 | 36103 ft | 483 kts | 191° |
| 2026-05-07 17:00 | 25.11181 | -78.90988 | 36103 ft | 483 kts | 191° |
| 2026-05-07 17:01 | 25.04511 | -78.91960 | 36102 ft | 484 kts | 191° |
| 2026-05-07 17:01 | 24.97836 | -78.92926 | 36103 ft | 484 kts | 191° |
| 2026-05-07 17:02 | 24.91159 | -78.93888 | 36101 ft | 484 kts | 191° |
| 2026-05-07 17:02 | 24.84474 | -78.94853 | 36101 ft | 484 kts | 191° |
| 2026-05-07 17:03 | 24.77792 | -78.95819 | 36103 ft | 485 kts | 191° |
| 2026-05-07 17:03 | 24.71098 | -78.96787 | 36109 ft | 485 kts | 191° |
| 2026-05-07 17:04 | 24.64409 | -78.97749 | 36104 ft | 485 kts | 191° |
| 2026-05-07 17:04 | 24.57712 | -78.98709 | 36105 ft | 485 kts | 191° |
| 2026-05-07 17:05 | 24.51012 | -78.99677 | 36106 ft | 485 kts | 191° |
| 2026-05-07 17:05 | 24.44315 | -79.00646 | 36106 ft | 485 kts | 190° |
| 2026-05-07 17:06 | 24.37615 | -79.01605 | 36106 ft | 486 kts | 190° |
| 2026-05-07 17:06 | 24.30917 | -79.02558 | 36103 ft | 486 kts | 190° |
| 2026-05-07 17:07 | 24.24210 | -79.03521 | 36106 ft | 486 kts | 190° |
| 2026-05-07 17:07 | 24.17511 | -79.04485 | 36105 ft | 486 kts | 190° |
| 2026-05-07 17:08 | 24.10813 | -79.05439 | 36107 ft | 485 kts | 190° |
| 2026-05-07 17:08 | 24.04110 | -79.06394 | 36107 ft | 485 kts | 190° |
| 2026-05-07 17:09 | 23.97372 | -79.07049 | 36106 ft | 487 kts | 184° |
| 2026-05-07 17:09 | 23.90631 | -79.07202 | 36106 ft | 488 kts | 184° |
| 2026-05-07 17:10 | 23.83851 | -79.07339 | 36106 ft | 487 kts | 183° |
| 2026-05-07 17:10 | 23.77065 | -79.07491 | 36106 ft | 487 kts | 184° |
| 2026-05-07 17:11 | 23.70280 | -79.07650 | 36108 ft | 487 kts | 183° |
| 2026-05-07 17:11 | 23.63503 | -79.07796 | 36107 ft | 487 kts | 183° |
| 2026-05-07 17:12 | 23.56726 | -79.07943 | 36106 ft | 487 kts | 183° |
| 2026-05-07 17:12 | 23.49941 | -79.08094 | 36109 ft | 487 kts | 183° |
| 2026-05-07 17:13 | 23.43165 | -79.08248 | 36105 ft | 487 kts | 183° |
| 2026-05-07 17:13 | 23.36387 | -79.08397 | 36104 ft | 487 kts | 183° |
| 2026-05-07 17:14 | 23.29650 | -79.08543 | 36103 ft | 487 kts | 183° |
| 2026-05-07 17:14 | 23.22874 | -79.08691 | 36106 ft | 487 kts | 183° |
| 2026-05-07 17:15 | 23.16089 | -79.08845 | 36103 ft | 487 kts | 183° |
| 2026-05-07 17:15 | 23.09306 | -79.08999 | 36107 ft | 487 kts | 183° |
| 2026-05-07 17:16 | 23.02530 | -79.09155 | 36106 ft | 487 kts | 183° |
| 2026-05-07 17:16 | 22.95754 | -79.09312 | 36099 ft | 487 kts | 183° |
| 2026-05-07 17:17 | 22.88978 | -79.09457 | 36100 ft | 487 kts | 183° |
| 2026-05-07 17:17 | 22.82203 | -79.09600 | 36102 ft | 487 kts | 183° |
| 2026-05-07 17:18 | 22.75478 | -79.09745 | 36103 ft | 487 kts | 183° |
| 2026-05-07 17:18 | 22.68706 | -79.09894 | 36099 ft | 487 kts | 183° |
| 2026-05-07 17:19 | 22.61926 | -79.10042 | 36097 ft | 487 kts | 183° |
| 2026-05-07 17:19 | 22.55152 | -79.10195 | 36093 ft | 487 kts | 183° |
| 2026-05-07 17:20 | 22.48377 | -79.10345 | 36093 ft | 486 kts | 183° |
| 2026-05-07 17:20 | 22.41610 | -79.10490 | 36094 ft | 486 kts | 182° |
| 2026-05-07 17:21 | 22.34891 | -79.10631 | 36095 ft | 486 kts | 182° |
| 2026-05-07 17:21 | 22.28124 | -79.10781 | 36090 ft | 486 kts | 182° |
| 2026-05-07 17:22 | 22.21359 | -79.10929 | 36091 ft | 486 kts | 182° |
| 2026-05-07 17:22 | 22.14595 | -79.11058 | 36084 ft | 486 kts | 180° |
| 2026-05-07 17:23 | 22.07895 | -79.10017 | 36085 ft | 488 kts | 169° |
| 2026-05-07 17:23 | 22.01246 | -79.08535 | 36085 ft | 488 kts | 169° |
| 2026-05-07 17:24 | 21.94583 | -79.07058 | 36083 ft | 488 kts | 169° |
| 2026-05-07 17:24 | 21.87975 | -79.05597 | 36088 ft | 488 kts | 169° |
| 2026-05-07 17:25 | 21.81323 | -79.04131 | 36089 ft | 488 kts | 169° |
| 2026-05-07 17:25 | 21.74673 | -79.02659 | 36084 ft | 488 kts | 169° |
| 2026-05-07 17:26 | 21.68025 | -79.01192 | 36085 ft | 488 kts | 169° |
| 2026-05-07 17:26 | 21.61375 | -78.99720 | 36087 ft | 488 kts | 169° |
| 2026-05-07 17:27 | 21.54723 | -78.98251 | 36086 ft | 488 kts | 169° |
| 2026-05-07 17:27 | 21.48074 | -78.96781 | 36090 ft | 488 kts | 169° |
| 2026-05-07 17:28 | 21.41426 | -78.95320 | 36097 ft | 488 kts | 169° |
| 2026-05-07 17:28 | 21.34766 | -78.93859 | 36098 ft | 488 kts | 169° |
| 2026-05-07 17:29 | 21.28116 | -78.92401 | 36091 ft | 488 kts | 169° |
| 2026-05-07 17:29 | 21.21464 | -78.90943 | 36097 ft | 488 kts | 169° |
| 2026-05-07 17:30 | 21.14814 | -78.89486 | 36099 ft | 488 kts | 169° |
| 2026-05-07 17:30 | 21.08162 | -78.88031 | 36097 ft | 488 kts | 169° |
| 2026-05-07 17:31 | 21.01549 | -78.86586 | 36098 ft | 488 kts | 169° |
| 2026-05-07 17:31 | 20.94891 | -78.85138 | 36094 ft | 488 kts | 169° |
| 2026-05-07 17:32 | 20.88238 | -78.83683 | 36098 ft | 488 kts | 169° |
| 2026-05-07 17:32 | 20.82709 | -78.82471 | 36098 ft | 488 kts | 169° |
| 2026-05-07 17:33 | 20.74937 | -78.80782 | 36098 ft | 488 kts | 169° |
| 2026-05-07 17:33 | 20.68280 | -78.79345 | 36093 ft | 488 kts | 169° |
| 2026-05-07 17:34 | 20.61625 | -78.77902 | 36090 ft | 488 kts | 169° |
| 2026-05-07 17:34 | 20.54981 | -78.76449 | 36092 ft | 488 kts | 169° |
| 2026-05-07 17:35 | 20.48333 | -78.74992 | 36095 ft | 487 kts | 169° |
| 2026-05-07 17:35 | 20.41690 | -78.73546 | 36091 ft | 487 kts | 169° |
| 2026-05-07 17:36 | 20.35042 | -78.72106 | 36094 ft | 487 kts | 169° |
| 2026-05-07 17:36 | 20.28395 | -78.70668 | 36090 ft | 487 kts | 169° |
| 2026-05-07 17:37 | 20.21793 | -78.69241 | 36095 ft | 487 kts | 169° |
| 2026-05-07 17:37 | 20.15142 | -78.67805 | 36087 ft | 487 kts | 169° |
| 2026-05-07 17:38 | 20.08493 | -78.66374 | 36089 ft | 487 kts | 169° |
| 2026-05-07 17:38 | 20.01848 | -78.64942 | 36092 ft | 487 kts | 169° |
| 2026-05-07 17:39 | 19.95202 | -78.63537 | 36088 ft | 487 kts | 169° |
| 2026-05-07 17:39 | 19.88546 | -78.62198 | 36087 ft | 487 kts | 170° |
| 2026-05-07 17:40 | 19.81887 | -78.60872 | 36085 ft | 487 kts | 170° |
| 2026-05-07 17:40 | 19.75272 | -78.59548 | 36086 ft | 486 kts | 169° |
| 2026-05-07 17:41 | 19.68621 | -78.58213 | 36081 ft | 486 kts | 169° |
| 2026-05-07 17:41 | 19.61968 | -78.56863 | 36078 ft | 486 kts | 169° |
| 2026-05-07 17:42 | 19.56443 | -78.55750 | 36080 ft | 486 kts | 169° |
| 2026-05-07 17:42 | 19.49790 | -78.54422 | 36081 ft | 486 kts | 169° |
| 2026-05-07 17:43 | 19.43136 | -78.53084 | 36085 ft | 487 kts | 169° |
| 2026-05-07 17:43 | 19.36486 | -78.51742 | 36074 ft | 487 kts | 169° |
| 2026-05-07 17:44 | 19.29826 | -78.50394 | 36074 ft | 487 kts | 169° |
| 2026-05-07 17:44 | 19.26502 | -78.49725 | 35789 ft | 485 kts | 169° |
| 2026-05-07 17:44 | 19.23190 | -78.49064 | 34605 ft | 483 kts | 169° |
| 2026-05-07 17:45 | 19.19890 | -78.48410 | 33367 ft | 483 kts | 169° |
| 2026-05-07 17:45 | 19.16579 | -78.47750 | 32096 ft | 485 kts | 168° |
| 2026-05-07 17:45 | 19.13260 | -78.47088 | 30873 ft | 488 kts | 168° |
| 2026-05-07 17:45 | 19.09909 | -78.46417 | 29601 ft | 491 kts | 168° |
| 2026-05-07 17:46 | 19.06541 | -78.45741 | 28243 ft | 495 kts | 168° |
| 2026-05-07 17:46 | 19.03145 | -78.45060 | 26946 ft | 498 kts | 168° |
| 2026-05-07 17:46 | 18.99732 | -78.44358 | 25691 ft | 501 kts | 165° |
| 2026-05-07 17:46 | 18.96452 | -78.43156 | 24488 ft | 498 kts | 151° |
| 2026-05-07 17:47 | 18.93561 | -78.41280 | 23297 ft | 490 kts | 139° |
| 2026-05-07 17:47 | 18.91124 | -78.38842 | 21998 ft | 477 kts | 129° |
| 2026-05-07 17:47 | 18.88894 | -78.36298 | 20783 ft | 467 kts | 130° |
| 2026-05-07 17:47 | 18.86707 | -78.33810 | 19658 ft | 455 kts | 130° |
| 2026-05-07 17:48 | 18.84617 | -78.31444 | 19068 ft | 424 kts | 130° |
| 2026-05-07 17:48 | 18.82674 | -78.29252 | 18766 ft | 393 kts | 130° |
| 2026-05-07 17:48 | 18.80880 | -78.27229 | 18563 ft | 362 kts | 130° |
| 2026-05-07 17:48 | 18.79220 | -78.25354 | 18207 ft | 340 kts | 130° |
| 2026-05-07 17:49 | 18.77631 | -78.23553 | 17466 ft | 331 kts | 130° |
| 2026-05-07 17:49 | 18.76077 | -78.21785 | 16644 ft | 327 kts | 130° |
| 2026-05-07 17:49 | 18.74541 | -78.20034 | 15825 ft | 323 kts | 131° |
| 2026-05-07 17:49 | 18.73022 | -78.18302 | 15029 ft | 320 kts | 131° |
| 2026-05-07 17:50 | 18.71508 | -78.16583 | 14241 ft | 319 kts | 132° |
| 2026-05-07 17:50 | 18.70000 | -78.14876 | 13414 ft | 318 kts | 133° |
| 2026-05-07 17:50 | 18.68499 | -78.13182 | 12603 ft | 314 kts | 133° |
| 2026-05-07 17:50 | 18.67015 | -78.11507 | 11845 ft | 310 kts | 133° |
| 2026-05-07 17:51 | 18.65550 | -78.09855 | 11104 ft | 306 kts | 133° |
| 2026-05-07 17:51 | 18.64085 | -78.08249 | 10377 ft | 302 kts | 139° |
| 2026-05-07 17:51 | 18.62247 | -78.07281 | 9672 ft | 296 kts | 171° |
| 2026-05-07 17:51 | 18.60233 | -78.07474 | 8922 ft | 293 kts | 202° |
| 2026-05-07 17:52 | 18.58556 | -78.08660 | 8138 ft | 292 kts | 220° |
| 2026-05-07 17:52 | 18.56986 | -78.10005 | 7373 ft | 289 kts | 212° |
| 2026-05-07 17:52 | 18.55254 | -78.10972 | 6690 ft | 283 kts | 198° |
| 2026-05-07 17:52 | 18.53378 | -78.11513 | 5966 ft | 278 kts | 187° |
| 2026-05-07 17:53 | 18.51472 | -78.11726 | 5225 ft | 274 kts | 180° |
| 2026-05-07 17:53 | 18.49583 | -78.11723 | 4528 ft | 269 kts | 175° |
| 2026-05-07 17:53 | 18.47749 | -78.11546 | 4090 ft | 256 kts | 170° |
| 2026-05-07 17:53 | 18.46078 | -78.11233 | 3972 ft | 232 kts | 165° |
| 2026-05-07 17:54 | 18.44554 | -78.10784 | 4001 ft | 219 kts | 155° |
| 2026-05-07 17:54 | 18.43415 | -78.09821 | 3581 ft | 212 kts | 121° |
| 2026-05-07 17:54 | 18.43084 | -78.08340 | 3158 ft | 213 kts | 83° |
| 2026-05-07 17:54 | 18.43587 | -78.06837 | 2836 ft | 221 kts | 65° |
| 2026-05-07 17:55 | 18.44229 | -78.05396 | 2590 ft | 217 kts | 66° |
| 2026-05-07 17:55 | 18.44865 | -78.03956 | 2310 ft | 216 kts | 66° |
| 2026-05-07 17:55 | 18.45498 | -78.02511 | 2074 ft | 220 kts | 63° |
| 2026-05-07 17:55 | 18.46133 | -78.01052 | 1746 ft | 216 kts | 65° |
| 2026-05-07 17:56 | 18.46739 | -77.99664 | 1476 ft | 201 kts | 66° |
| 2026-05-07 17:56 | 18.47300 | -77.98377 | 1238 ft | 186 kts | 65° |
| 2026-05-07 17:56 | 18.47821 | -77.97182 | 1025 ft | 173 kts | 64° |
| 2026-05-07 17:56 | 18.48313 | -77.96054 | 799 ft | 169 kts | 64° |
| 2026-05-07 17:57 | 18.48800 | -77.94938 | 591 ft | 165 kts | 66° |
| 2026-05-07 17:57 | 18.49114 | -77.94217 | 445 ft | 163 kts | 64° |
| 2026-05-07 17:57 | 18.49716 | -77.92835 | 200 ft | 147 kts | 65° |
| 2026-05-07 17:57 | 18.50128 | -77.91877 | 20 ft | 135 kts | 66° |
| 2026-05-07 17:58 | 18.50429 | -77.91199 | 13 ft | 56 kts | 65° |
| 2026-05-07 17:58 | 18.50533 | -77.90856 | 13 ft | 43 kts | 85° |
| 2026-05-07 17:58 | 18.50528 | -77.90699 | 13 ft | 15 kts | 120° |
| 2026-05-07 17:58 | 18.50451 | -77.90713 | 11 ft | 13 kts | 249° |
| 2026-05-07 17:59 | 18.50393 | -77.90848 | 11 ft | 28 kts | 246° |
| 2026-05-07 17:59 | 18.50310 | -77.91047 | 11 ft | 31 kts | 243° |
| 2026-05-07 17:59 | 18.50252 | -77.91168 | 12 ft | 0 kts | 244° |